Time;durP1;ratioP1;P1;durP2;ratioP2;P2;SDS_P1;SDS_P2;PMS_P1;PMS_P2;Temp;Humidity;BMP_temperature;BMP_pressure;BME280_temperature;BME280_humidity;BME280_pressure;Samples;Min_cycle;Max_cycle;Signal;HPM_P1;HPM_P2
2022/11/14 00:02:26;;;;;;;46.50;32.50;;;6.90;99.90;;;;;;4984660;28;20461;-54
2022/11/14 00:04:53;;;;;;;57.53;36.10;;;6.90;99.90;;;;;;4986257;28;20546;-56
2022/11/14 00:07:19;;;;;;;48.67;33.47;;;6.80;99.90;;;;;;4988737;28;20464;-55
2022/11/14 00:09:47;;;;;;;48.97;32.67;;;6.90;99.90;;;;;;4986958;28;20460;-54
2022/11/14 00:12:14;;;;;;;55.50;35.00;;;6.90;99.90;;;;;;4982479;28;20515;-53
2022/11/14 00:14:40;;;;;;;52.20;34.43;;;6.90;99.90;;;;;;4986344;28;20460;-56
2022/11/14 00:17:07;;;;;;;53.80;35.40;;;6.80;99.90;;;;;;4981453;28;20492;-54
2022/11/14 00:19:33;;;;;;;54.80;35.33;;;6.80;99.90;;;;;;4988058;28;20526;-53
2022/11/14 00:22:00;;;;;;;53.57;36.70;;;6.80;99.90;;;;;;4986095;28;20525;-54
2022/11/14 00:24:26;;;;;;;52.00;35.20;;;6.80;99.90;;;;;;4986294;28;20534;-54
2022/11/14 00:26:54;;;;;;;53.63;35.70;;;6.80;99.90;;;;;;4987491;28;21068;-54
2022/11/14 00:29:21;;;;;;;61.23;36.50;;;6.80;1.40;;;;;;4986127;28;20452;-54
2022/11/14 00:31:47;;;;;;;48.67;33.60;;;6.80;99.90;;;;;;4986707;28;21041;-55
2022/11/14 00:34:14;;;;;;;62.57;37.50;;;6.70;99.90;;;;;;4986121;28;20468;-53
2022/11/14 00:36:41;;;;;;;52.43;35.13;;;6.70;99.90;;;;;;4986451;28;20484;-54
2022/11/14 00:39:11;;;;;;;51.47;34.90;;;6.70;99.90;;;;;;4987285;28;20578;-55
2022/11/14 00:41:38;;;;;;;51.47;35.00;;;6.70;99.90;;;;;;4988216;28;20464;-53
2022/11/14 00:44:06;;;;;;;51.50;35.10;;;6.70;99.90;;;;;;4983169;28;20583;-54
2022/11/14 00:46:33;;;;;;;55.03;36.33;;;6.70;99.90;;;;;;4987449;28;20497;-54
2022/11/14 00:48:59;;;;;;;58.40;35.10;;;6.70;99.90;;;;;;4985951;28;20494;-55
2022/11/14 00:51:26;;;;;;;48.70;34.70;;;6.70;99.90;;;;;;4984390;28;20728;-54
2022/11/14 00:53:53;;;;;;;55.07;36.07;;;6.70;99.90;;;;;;4983972;28;20492;-54
2022/11/14 00:56:19;;;;;;;50.30;34.27;;;6.80;99.90;;;;;;4988448;28;20495;-54
2022/11/14 00:58:46;;;;;;;56.23;35.87;;;6.80;99.90;;;;;;4987958;28;20468;-53
2022/11/14 01:01:14;;;;;;;62.27;35.83;;;6.80;99.90;;;;;;4985288;28;20535;-54
2022/11/14 01:03:41;;;;;;;61.87;39.20;;;6.80;99.90;;;;;;4985102;28;20460;-55
2022/11/14 01:06:09;;;;;;;55.13;34.87;;;6.80;99.90;;;;;;4986888;28;20539;-54
2022/11/14 01:08:35;;;;;;;58.03;37.93;;;6.70;99.90;;;;;;4985026;28;20466;-53
2022/11/14 01:11:09;;;;;;;53.03;35.27;;;6.70;99.90;;;;;;4988165;28;20464;-53
2022/11/14 01:13:36;;;;;;;63.40;39.77;;;6.70;99.90;;;;;;4983552;28;20550;-55
2022/11/14 01:16:02;;;;;;;57.27;37.23;;;6.70;99.90;;;;;;4985775;28;20558;-54
2022/11/14 01:18:31;;;;;;;60.67;38.07;;;6.70;99.90;;;;;;4988914;28;20460;-55
2022/11/14 01:20:57;;;;;;;61.87;38.97;;;6.60;99.90;;;;;;4985866;28;20516;-54
2022/11/14 01:23:24;;;;;;;57.30;37.70;;;6.60;99.90;;;;;;4985296;28;20495;-53
2022/11/14 01:25:50;;;;;;;61.20;37.57;;;6.50;99.90;;;;;;4986106;28;20481;-54
2022/11/14 01:28:19;;;;;;;63.93;38.70;;;6.50;99.90;;;;;;4988655;28;20519;-53
2022/11/14 01:30:46;;;;;;;57.10;36.70;;;6.50;99.90;;;;;;4985927;28;20515;-54
2022/11/14 01:33:12;;;;;;;55.73;37.60;;;6.50;99.90;;;;;;4984671;28;20461;-53
2022/11/14 01:35:40;;;;;;;57.67;38.33;;;6.50;99.90;;;;;;4985697;28;21001;-54
2022/11/14 01:38:07;;;;;;;56.70;38.50;;;6.50;99.90;;;;;;4986597;28;20469;-55
2022/11/14 01:40:34;;;;;;;58.40;37.27;;;6.40;99.90;;;;;;4984618;28;20543;-54
2022/11/14 01:43:26;;;;;;;63.40;38.83;;;6.40;99.90;;;;;;4987855;28;20465;-54
2022/11/14 01:45:55;;;;;;;61.73;40.00;;;6.40;99.90;;;;;;4983797;28;20492;-54
2022/11/14 01:48:25;;;;;;;61.30;38.83;;;6.40;99.90;;;;;;4989457;28;20456;-53
2022/11/14 01:50:58;;;;;;;55.70;38.40;;;6.30;99.90;;;;;;4986465;28;20503;-53
2022/11/14 01:53:26;;;;;;;66.63;40.10;;;6.20;99.90;;;;;;4986586;28;20504;-54
2022/11/14 01:55:54;;;;;;;60.13;39.20;;;6.20;99.90;;;;;;4991110;28;20523;-54
2022/11/14 01:58:21;;;;;;;67.70;39.77;;;6.10;99.90;;;;;;4991017;28;20460;-54
2022/11/14 02:00:48;;;;;;;59.23;38.73;;;6.10;99.90;;;;;;4990257;28;20520;-52
2022/11/14 02:03:15;;;;;;;60.03;37.97;;;6.10;99.90;;;;;;4984978;28;20963;-53
2022/11/14 02:05:44;;;;;;;60.80;38.20;;;6.00;99.90;;;;;;4990984;28;20488;-54
2022/11/14 02:08:14;;;;;;;57.33;37.27;;;5.90;99.90;;;;;;4988824;28;20468;-54
2022/11/14 02:10:40;;;;;;;58.10;37.30;;;5.90;99.90;;;;;;4990428;28;20519;-53
2022/11/14 02:13:07;;;;;;;62.80;39.40;;;5.80;99.90;;;;;;4988348;28;20511;-53
2022/11/14 02:15:34;;;;;;;64.87;38.83;;;5.70;99.90;;;;;;4986245;28;20480;-53
2022/11/14 02:18:01;;;;;;;62.00;40.90;;;5.80;99.90;;;;;;4989186;28;20483;-53
2022/11/14 02:20:33;;;;;;;69.10;40.93;;;5.70;99.90;;;;;;4987153;28;20531;-55
2022/11/14 02:23:00;;;;;;;65.70;39.07;;;5.60;99.90;;;;;;4982644;28;20963;-53
2022/11/14 02:25:27;;;;;;;60.00;39.10;;;5.60;99.90;;;;;;4984679;28;20485;-53
2022/11/14 02:27:55;;;;;;;66.63;39.37;;;5.60;99.90;;;;;;4986691;28;20535;-54
2022/11/14 02:30:23;;;;;;;69.53;40.50;;;5.50;99.90;;;;;;4984987;28;20515;-54
2022/11/14 02:32:49;;;;;;;62.57;38.33;;;5.40;99.90;;;;;;4985953;28;20904;-53
2022/11/14 02:35:16;;;;;;;65.67;39.03;;;5.40;99.90;;;;;;4985742;28;20480;-54
2022/11/14 02:37:44;;;;;;;61.97;38.23;;;5.40;99.90;;;;;;4988763;28;20547;-54
2022/11/14 02:40:11;;;;;;;61.37;39.90;;;5.40;99.90;;;;;;4988401;28;20896;-54
2022/11/14 02:42:38;;;;;;;59.50;38.40;;;5.50;99.90;;;;;;4984386;28;20472;-54
2022/11/14 02:45:05;;;;;;;62.63;39.43;;;5.60;99.90;;;;;;4988407;28;20982;-54
2022/11/14 02:47:32;;;;;;;68.67;41.00;;;5.70;99.90;;;;;;4989795;28;20468;-54
2022/11/14 02:49:58;;;;;;;77.80;43.80;;;5.70;99.90;;;;;;4990562;28;20697;-54
2022/11/14 02:52:25;;;;;;;65.77;40.67;;;5.80;99.90;;;;;;4984244;28;20464;-54
2022/11/14 02:54:53;;;;;;;90.23;41.63;;;5.80;99.90;;;;;;4987500;28;20959;-54
2022/11/14 02:57:19;;;;;;;69.97;42.23;;;5.90;99.90;;;;;;4991409;28;20469;-54
2022/11/14 02:59:46;;;;;;;71.87;44.47;;;5.90;99.90;;;;;;4987672;28;20484;-54
2022/11/14 03:02:13;;;;;;;71.00;41.87;;;6.00;99.90;;;;;;4986185;28;20896;-54
2022/11/14 03:04:40;;;;;;;70.73;41.73;;;6.00;99.90;;;;;;4988284;28;20479;-54
2022/11/14 03:07:06;;;;;;;72.27;43.17;;;6.00;99.90;;;;;;4987270;28;20485;-53
2022/11/14 03:09:33;;;;;;;67.80;41.83;;;6.00;99.90;;;;;;4989241;28;20951;-54
2022/11/14 03:12:01;;;;;;;73.77;42.80;;;6.10;99.90;;;;;;4984673;28;20461;-53
2022/11/14 03:14:30;;;;;;;75.20;41.10;;;6.10;99.90;;;;;;4991168;28;20519;-54
2022/11/14 03:16:56;;;;;;;79.03;42.50;;;6.10;99.90;;;;;;4986424;28;20488;-54
2022/11/14 03:19:23;;;;;;;74.17;43.97;;;6.10;99.90;;;;;;4991198;28;20844;-53
2022/11/14 03:21:49;;;;;;;76.70;42.37;;;6.20;99.90;;;;;;4985740;28;20510;-54
2022/11/14 03:24:16;;;;;;;65.37;41.93;;;6.20;99.90;;;;;;4988560;28;20464;-54
2022/11/14 03:26:43;;;;;;;73.30;41.93;;;6.20;99.90;;;;;;4986146;28;20484;-53
2022/11/14 03:29:11;;;;;;;67.80;40.93;;;6.20;99.90;;;;;;4985214;28;20464;-53
2022/11/14 03:31:37;;;;;;;76.90;42.90;;;6.20;99.90;;;;;;4985977;28;20457;-53
2022/11/14 03:34:04;;;;;;;84.30;43.80;;;6.10;99.90;;;;;;4983898;28;20468;-54
2022/11/14 03:36:30;;;;;;;80.33;43.57;;;6.10;99.90;;;;;;4984313;28;20488;-53
2022/11/14 03:38:57;;;;;;;78.80;43.00;;;6.20;99.90;;;;;;4989222;28;20950;-54
2022/11/14 03:41:23;;;;;;;78.67;42.20;;;6.20;99.90;;;;;;4989534;28;20492;-53
2022/11/14 03:43:50;;;;;;;76.93;43.43;;;6.20;99.90;;;;;;4986258;28;20465;-53
2022/11/14 03:46:18;;;;;;;75.93;45.17;;;6.20;99.90;;;;;;4987531;28;20539;-53
2022/11/14 03:48:44;;;;;;;68.73;41.83;;;6.20;99.90;;;;;;4984337;28;20527;-55
2022/11/14 03:51:11;;;;;;;69.20;42.77;;;6.30;99.90;;;;;;4988099;28;20515;-54
2022/11/14 03:53:38;;;;;;;77.13;43.93;;;6.30;99.90;;;;;;4988293;28;20460;-52
2022/11/14 03:56:05;;;;;;;73.53;42.57;;;6.30;99.90;;;;;;4981939;28;20496;-53
2022/11/14 03:58:31;;;;;;;76.50;43.37;;;6.30;99.90;;;;;;4985629;28;20472;-54
2022/11/14 04:00:58;;;;;;;76.97;41.73;;;6.30;99.90;;;;;;4979492;28;20489;-55
2022/11/14 04:03:26;;;;;;;72.90;42.37;;;6.30;99.90;;;;;;4987241;28;20453;-53
2022/11/14 04:05:53;;;;;;;73.67;41.27;;;6.30;99.90;;;;;;4989393;28;20990;-54
2022/11/14 04:08:19;;;;;;;71.53;42.03;;;6.20;99.90;;;;;;4986554;28;20535;-55
2022/11/14 04:10:47;;;;;;;76.23;42.90;;;6.20;99.90;;;;;;4985796;28;20515;-54
2022/11/14 04:13:13;;;;;;;73.10;42.30;;;6.20;99.90;;;;;;4988089;28;20963;-54
2022/11/14 04:15:40;;;;;;;75.97;40.67;;;6.20;99.90;;;;;;4988422;28;20599;-56
2022/11/14 04:18:07;;;;;;;73.80;41.10;;;6.20;99.90;;;;;;4990400;28;20951;-53
2022/11/14 04:20:35;;;;;;;78.27;43.90;;;6.20;99.90;;;;;;4986497;28;20476;-54
2022/11/14 04:23:01;;;;;;;79.40;42.50;;;6.20;99.90;;;;;;4980947;28;20543;-53
2022/11/14 04:25:28;;;;;;;67.77;40.50;;;6.20;99.90;;;;;;4990192;28;20729;-54
2022/11/14 04:27:54;;;;;;;83.93;41.40;;;6.30;99.90;;;;;;5001395;23;21072;-52
2022/11/14 04:30:21;;;;;;;76.70;42.47;;;6.20;99.90;;;;;;4988558;28;20453;-51
2022/11/14 04:32:48;;;;;;;80.20;44.47;;;6.20;99.90;;;;;;4986720;28;20469;-52
2022/11/14 04:35:15;;;;;;;84.37;45.27;;;6.20;99.90;;;;;;4982346;28;20460;-50
2022/11/14 04:37:43;;;;;;;73.17;41.70;;;6.20;99.90;;;;;;4988562;28;21034;-51
2022/11/14 04:40:10;;;;;;;72.13;41.03;;;6.20;99.90;;;;;;4989572;28;20484;-51
2022/11/14 04:42:37;;;;;;;77.73;40.50;;;6.20;99.90;;;;;;4990031;28;20463;-50
2022/11/14 04:45:04;;;;;;;77.07;42.73;;;6.10;99.90;;;;;;4989228;28;20970;-51
2022/11/14 04:47:30;;;;;;;80.90;42.13;;;6.20;99.90;;;;;;4986707;28;20519;-52
2022/11/14 04:49:57;;;;;;;75.87;42.10;;;6.20;99.90;;;;;;4988719;28;20603;-54
2022/11/14 04:52:24;;;;;;;81.07;42.77;;;6.20;99.90;;;;;;4982051;28;20543;-54
2022/11/14 04:54:52;;;;;;;77.80;43.40;;;6.10;99.90;;;;;;4985855;28;20523;-54
2022/11/14 04:57:18;;;;;;;78.43;40.93;;;6.10;99.90;;;;;;4983435;28;20535;-54
2022/11/14 04:59:45;;;;;;;78.33;42.20;;;6.10;99.90;;;;;;4982298;28;20518;-54
2022/11/14 05:02:12;;;;;;;75.73;42.90;;;6.10;99.90;;;;;;4982626;28;20538;-54
2022/11/14 05:04:38;;;;;;;80.70;41.70;;;6.10;99.90;;;;;;4991120;28;20523;-54
2022/11/14 05:07:05;;;;;;;74.37;43.17;;;6.10;99.90;;;;;;4988929;28;21005;-54
2022/11/14 05:09:31;;;;;;;88.97;42.77;;;6.10;99.90;;;;;;4985620;28;20469;-55
2022/11/14 05:11:59;;;;;;;79.60;42.93;;;6.10;99.90;;;;;;4983591;28;20507;-53
2022/11/14 05:14:26;;;;;;;78.83;42.03;;;6.10;99.90;;;;;;4986524;28;20460;-55
2022/11/14 05:16:53;;;;;;;80.03;41.87;;;6.10;99.90;;;;;;4983672;28;20543;-51
2022/11/14 05:19:19;;;;;;;75.40;41.50;;;6.10;99.90;;;;;;4988308;28;21527;-51
2022/11/14 05:21:46;;;;;;;86.40;44.70;;;6.10;99.90;;;;;;4991405;28;20518;-52
2022/11/14 05:24:12;;;;;;;71.93;41.40;;;6.10;99.90;;;;;;4989294;28;22017;-51
2022/11/14 05:26:39;;;;;;;79.13;42.80;;;6.10;99.90;;;;;;4991212;28;20488;-53
2022/11/14 05:29:07;;;;;;;83.33;44.13;;;6.20;99.90;;;;;;4988560;28;20464;-52
2022/11/14 05:31:34;;;;;;;75.57;41.67;;;6.10;99.90;;;;;;4987514;28;20461;-51
2022/11/14 05:34:00;;;;;;;74.27;42.53;;;6.10;99.90;;;;;;4985755;28;20492;-51
2022/11/14 05:36:27;;;;;;;80.57;43.00;;;6.10;99.90;;;;;;4992182;28;20532;-50
2022/11/14 05:38:54;;;;;;;73.50;41.17;;;6.10;99.90;;;;;;4992497;28;20468;-51
2022/11/14 05:41:20;;;;;;;81.17;43.13;;;6.10;99.90;;;;;;4987825;28;20988;-50
2022/11/14 05:43:47;;;;;;;82.63;43.93;;;6.20;99.90;;;;;;4987278;28;20468;-50
2022/11/14 05:46:16;;;;;;;83.40;43.87;;;6.20;99.90;;;;;;4985226;28;20472;-52
2022/11/14 05:48:43;;;;;;;79.80;43.47;;;6.20;99.90;;;;;;4989213;28;21811;-52
2022/11/14 05:51:11;;;;;;;76.67;42.93;;;6.20;99.90;;;;;;4989711;28;20464;-52
2022/11/14 05:53:39;;;;;;;74.07;41.60;;;6.20;99.90;;;;;;4987502;28;20456;-52
2022/11/14 05:56:09;;;;;;;83.70;43.73;;;6.10;99.90;;;;;;4986887;28;20464;-52
2022/11/14 05:58:36;;;;;;;83.87;45.17;;;6.10;99.90;;;;;;4985910;28;20466;-50
2022/11/14 06:01:05;;;;;;;76.10;42.43;;;6.20;99.90;;;;;;4989245;28;20488;-50
2022/11/14 06:03:35;;;;;;;83.37;42.20;;;6.20;99.90;;;;;;4988658;28;20472;-50
2022/11/14 06:06:03;;;;;;;80.53;42.80;;;6.10;99.90;;;;;;4989367;28;20526;-51
2022/11/14 06:08:30;;;;;;;79.47;43.87;;;6.10;99.90;;;;;;4989034;28;21169;-52
2022/11/14 06:11:01;;;;;;;76.00;41.23;;;6.10;99.90;;;;;;4990116;28;20461;-51
2022/11/14 06:13:27;;;;;;;74.07;42.23;;;6.10;99.90;;;;;;4983938;28;20476;-51
2022/11/14 06:15:59;;;;;;;78.70;43.20;;;6.10;99.90;;;;;;4984132;28;20813;-52
2022/11/14 06:18:26;;;;;;;81.80;43.20;;;6.10;99.90;;;;;;4982663;28;20472;-51
2022/11/14 06:20:54;;;;;;;84.87;43.30;;;6.10;99.90;;;;;;4987454;28;20484;-52
2022/11/14 06:23:21;;;;;;;76.40;42.13;;;6.10;99.90;;;;;;4986370;28;20468;-51
2022/11/14 06:25:47;;;;;;;75.13;41.47;;;6.10;99.90;;;;;;4987441;28;20471;-51
2022/11/14 06:28:14;;;;;;;75.83;41.63;;;6.20;99.90;;;;;;4988062;28;21084;-51
2022/11/14 06:30:41;;;;;;;73.57;42.17;;;6.10;99.90;;;;;;4984709;28;20461;-52
2022/11/14 06:33:07;;;;;;;78.70;41.90;;;6.10;99.90;;;;;;4988434;28;20579;-51
2022/11/14 06:35:35;;;;;;;75.20;42.17;;;6.10;99.90;;;;;;4990269;28;20472;-51
2022/11/14 06:38:03;;;;;;;75.80;42.13;;;6.00;99.90;;;;;;4985027;28;20511;-51
2022/11/14 06:40:30;;;;;;;77.63;42.70;;;6.00;99.90;;;;;;4981821;28;20457;-52
2022/11/14 06:42:57;;;;;;;79.10;40.33;;;6.00;99.90;;;;;;4980275;28;20950;-52
2022/11/14 06:45:23;;;;;;;83.93;42.70;;;6.00;99.90;;;;;;4983692;28;21028;-51
2022/11/14 06:47:50;;;;;;;78.67;41.03;;;6.00;99.90;;;;;;4985828;28;20485;-51
2022/11/14 06:50:16;;;;;;;88.23;46.10;;;6.10;99.90;;;;;;4990062;28;20472;-52
2022/11/14 06:52:43;;;;;;;82.70;42.33;;;6.10;99.90;;;;;;4988650;28;20503;-51
2022/11/14 06:55:11;;;;;;;79.77;40.47;;;6.10;99.90;;;;;;4992001;28;20468;-51
2022/11/14 06:57:37;;;;;;;74.30;40.73;;;6.10;99.90;;;;;;4989640;28;20538;-51
2022/11/14 07:00:05;;;;;;;76.63;41.60;;;6.10;99.90;;;;;;4988521;28;22425;-51
2022/11/14 07:02:32;;;;;;;76.40;41.13;;;6.20;99.90;;;;;;4986319;28;20542;-52
2022/11/14 07:04:58;;;;;;;71.70;38.97;;;6.20;99.90;;;;;;4985743;28;20547;-51
2022/11/14 07:07:25;;;;;;;84.70;41.67;;;6.20;99.90;;;;;;4979962;28;20488;-52
2022/11/14 07:09:53;;;;;;;82.17;42.13;;;6.20;99.90;;;;;;4984058;28;20465;-52
2022/11/14 07:12:21;;;;;;;74.83;39.50;;;6.20;99.90;;;;;;4985396;28;20473;-52
2022/11/14 07:14:47;;;;;;;68.03;37.53;;;6.30;99.90;;;;;;4986699;28;20942;-51
2022/11/14 07:17:14;;;;;;;74.20;40.83;;;6.20;99.90;;;;;;4988974;28;20484;-51
2022/11/14 07:19:40;;;;;;;74.93;38.37;;;6.20;99.90;;;;;;4974902;28;20508;-52
2022/11/14 07:22:07;;;;;;;76.40;39.30;;;6.10;99.90;;;;;;4980367;28;21017;-52
2022/11/14 07:24:34;;;;;;;73.37;39.37;;;6.30;99.90;;;;;;4978321;28;20489;-51
2022/11/14 07:27:01;;;;;;;76.13;40.50;;;6.30;99.90;;;;;;4979644;28;20496;-50
2022/11/14 07:29:28;;;;;;;85.63;42.57;;;6.20;99.90;;;;;;4983170;28;20971;-50
2022/11/14 07:31:55;;;;;;;73.57;39.40;;;6.30;99.90;;;;;;4982240;28;20464;-51
2022/11/14 07:34:22;;;;;;;71.37;37.43;;;6.30;99.90;;;;;;4976573;28;20528;-51
2022/11/14 07:36:49;;;;;;;74.47;40.50;;;6.30;99.90;;;;;;4973357;28;20515;-52
2022/11/14 07:39:16;;;;;;;76.23;40.93;;;6.30;99.90;;;;;;4979484;28;20468;-52
2022/11/14 07:41:42;;;;;;;75.57;38.30;;;6.30;99.90;;;;;;4979830;28;20484;-52
2022/11/14 07:44:09;;;;;;;76.93;38.93;;;6.40;99.90;;;;;;4982409;28;20468;-52
2022/11/14 07:46:37;;;;;;;73.20;39.47;;;6.30;99.90;;;;;;4976429;28;21223;-52
2022/11/14 07:49:04;;;;;;;78.30;39.63;;;6.20;99.90;;;;;;4978095;28;20816;-52
2022/11/14 07:51:30;;;;;;;66.17;36.87;;;6.20;99.90;;;;;;4975710;28;20578;-51
2022/11/14 07:53:57;;;;;;;74.53;40.23;;;6.20;99.90;;;;;;4986263;28;20518;-51
2022/11/14 07:56:24;;;;;;;76.93;40.57;;;6.40;99.90;;;;;;4978451;28;20480;-53
2022/11/14 07:58:51;;;;;;;76.83;38.30;;;6.50;99.90;;;;;;4979453;28;21156;-52
2022/11/14 08:01:18;;;;;;;82.87;40.17;;;6.50;99.90;;;;;;4979657;28;20486;-51
2022/11/14 08:03:46;;;;;;;73.77;40.40;;;6.70;99.90;;;;;;4984745;28;20505;-52
2022/11/14 08:06:14;;;;;;;70.60;37.90;;;6.80;99.90;;;;;;4976311;28;21152;-51
2022/11/14 08:08:41;;;;;;;74.33;39.60;;;7.00;99.90;;;;;;4981347;28;20488;-51
2022/11/14 08:11:07;;;;;;;68.30;37.00;;;7.00;99.90;;;;;;4983642;28;20528;-52
2022/11/14 08:13:34;;;;;;;68.23;37.40;;;6.90;99.90;;;;;;4980770;28;20487;-51
2022/11/14 08:16:04;;;;;;;71.47;39.40;;;7.00;99.90;;;;;;4971977;28;20597;-51
2022/11/14 08:18:31;;;;;;;66.53;37.70;;;6.90;99.90;;;;;;4978513;28;20495;-51
2022/11/14 08:20:59;;;;;;;77.87;38.80;;;6.90;99.90;;;;;;4980235;28;20511;-52
2022/11/14 08:23:26;;;;;;;73.53;37.20;;;7.20;99.90;;;;;;4985119;28;20461;-52
2022/11/14 08:25:52;;;;;;;74.33;38.00;;;7.30;99.90;;;;;;4979773;28;20518;-51
2022/11/14 08:28:19;;;;;;;78.53;38.33;;;7.20;99.90;;;;;;4983432;28;20493;-52
2022/11/14 08:30:46;;;;;;;74.93;37.60;;;7.40;99.90;;;;;;4975868;28;20501;-51
2022/11/14 08:33:12;;;;;;;72.30;38.20;;;7.50;99.90;;;;;;4987254;28;20507;-52
2022/11/14 08:35:39;;;;;;;71.83;35.43;;;7.40;99.90;;;;;;4979914;28;20465;-52
2022/11/14 08:38:08;;;;;;;65.07;35.87;;;7.60;99.90;;;;;;4984225;28;20481;-52
2022/11/14 08:40:34;;;;;;;76.87;37.53;;;8.10;99.90;;;;;;4987753;28;20479;-51
2022/11/14 08:43:01;;;;;;;65.70;35.17;;;8.50;99.90;;;;;;4987895;28;20597;-52
2022/11/14 08:45:28;;;;;;;73.53;37.27;;;8.60;39.50;;;;;;4977715;28;21215;-52
2022/11/14 08:47:55;;;;;;;62.93;35.17;;;8.70;38.40;;;;;;4984744;28;20546;-51
2022/11/14 08:50:22;;;;;;;69.47;36.67;;;8.30;39.30;;;;;;4983623;28;20475;-51
2022/11/14 08:52:50;;;;;;;72.37;37.10;;;8.30;30.50;;;;;;4975180;28;20468;-52
2022/11/14 08:55:18;;;;;;;73.87;37.10;;;8.10;99.90;;;;;;4986121;28;20921;-51
2022/11/14 08:57:45;;;;;;;69.37;34.57;;;7.90;99.90;;;;;;4989400;28;20526;-51
2022/11/14 09:00:13;;;;;;;69.43;35.77;;;7.60;99.90;;;;;;4987073;28;20959;-51
2022/11/14 09:02:40;;;;;;;78.17;38.20;;;7.60;99.90;;;;;;4988850;28;20854;-51
2022/11/14 09:05:07;;;;;;;70.37;37.53;;;7.30;99.90;;;;;;4990657;28;20456;-51
2022/11/14 09:07:34;;;;;;;68.83;37.37;;;7.20;99.90;;;;;;4985468;28;20480;-51
2022/11/14 09:10:00;;;;;;;72.00;37.00;;;7.20;99.90;;;;;;4991816;28;20969;-51
2022/11/14 09:12:29;;;;;;;75.13;37.87;;;7.00;99.90;;;;;;4990256;28;20453;-52
2022/11/14 09:14:55;;;;;;;71.37;38.20;;;7.10;99.90;;;;;;4984875;28;20457;-51
2022/11/14 09:17:22;;;;;;;79.87;38.13;;;7.30;99.90;;;;;;4976890;28;20544;-51
2022/11/14 09:19:48;;;;;;;70.17;36.47;;;7.30;99.90;;;;;;4989172;28;20809;-51
2022/11/14 09:22:15;;;;;;;69.73;36.07;;;7.30;99.90;;;;;;4985314;28;20826;-51
2022/11/14 09:24:42;;;;;;;77.43;40.00;;;7.50;99.90;;;;;;4989020;28;20514;-51
2022/11/14 09:27:08;;;;;;;73.17;38.73;;;7.20;99.90;;;;;;4987228;28;20554;-51
2022/11/14 09:29:36;;;;;;;68.97;36.40;;;7.50;99.90;;;;;;4991682;28;20489;-52
2022/11/14 09:32:03;;;;;;;69.93;36.97;;;7.80;99.90;;;;;;4987366;28;20465;-50
2022/11/14 09:34:29;;;;;;;69.03;38.10;;;7.90;87.60;;;;;;4984815;28;20551;-50
2022/11/14 09:36:56;;;;;;;69.53;35.47;;;7.80;99.90;;;;;;4977052;28;20484;-51
2022/11/14 09:39:23;;;;;;;78.40;37.63;;;7.70;99.90;;;;;;4978202;28;20472;-51
2022/11/14 09:42:06;;;;;;;73.27;36.43;;;7.40;99.90;;;;;;4973489;28;20966;-53
2022/11/14 09:44:46;;;;;;;71.97;34.93;;;7.40;99.90;;;;;;4975147;28;20460;-52
2022/11/14 09:47:20;;;;;;;68.77;34.13;;;7.80;99.90;;;;;;4987284;28;20562;-51
2022/11/14 09:49:48;;;;;;;62.83;36.27;;;9.10;36.20;;;;;;4985353;28;20468;-51
2022/11/14 09:52:25;;;;;;;61.53;33.87;;;9.40;99.90;;;;;;4982182;28;20573;-51
2022/11/14 09:54:55;;;;;;;68.03;34.73;;;9.80;99.90;;;;;;4988555;28;20460;-51
2022/11/14 09:57:22;;;;;;;67.37;35.20;;;9.50;95.80;;;;;;4988098;28;21080;-52
2022/11/14 09:59:50;;;;;;;67.70;34.60;;;9.30;91.90;;;;;;4990411;28;20487;-52
2022/11/14 10:02:33;;;;;;;70.37;31.53;;;9.60;78.60;;;;;;4985375;28;20485;-53
2022/11/14 10:05:14;;;;;;;58.20;33.00;;;10.10;99.90;;;;;;4983377;28;20460;-52
2022/11/14 10:07:51;;;;;;;60.47;31.43;;;10.80;99.90;;;;;;4987080;28;20493;-52
2022/11/14 10:10:29;;;;;;;59.23;33.13;;;11.10;99.90;;;;;;4984574;28;20518;-52
2022/11/14 10:13:04;;;;;;;53.10;29.70;;;10.30;99.90;;;;;;4986003;28;20955;-53
2022/11/14 10:15:40;;;;;;;59.40;33.17;;;9.80;99.90;;;;;;4979100;28;20454;-52
2022/11/14 10:18:24;;;;;;;56.97;31.03;;;9.10;68.50;;;;;;4986518;28;20550;-52
2022/11/14 10:20:54;;;;;;;63.87;32.30;;;9.50;84.20;;;;;;4987254;28;20515;-52
2022/11/14 10:23:33;;;;;;;57.13;31.10;;;9.40;78.80;;;;;;4982679;28;20480;-52
2022/11/14 10:26:12;;;;;;;59.50;32.50;;;9.70;99.90;;;;;;4982217;28;20887;-52
2022/11/14 10:28:48;;;;;;;55.67;30.97;;;9.90;99.90;;;;;;4983898;28;20465;-51
2022/11/14 10:31:28;;;;;;;51.50;30.70;;;10.80;99.90;;;;;;5003733;23;22469;-52
2022/11/14 10:34:03;;;;;;;56.57;32.13;;;11.70;99.90;;;;;;4998889;28;20463;-57
2022/11/14 10:36:44;;;;;;;57.53;30.97;;;12.20;99.90;;;;;;5001932;28;20510;-51
2022/11/14 10:39:16;;;;;;;61.73;30.60;;;11.70;99.90;;;;;;4993196;28;20464;-52
2022/11/14 10:41:44;;;;;;;52.70;30.03;;;11.20;99.90;;;;;;4985756;28;20480;-50
2022/11/14 10:44:16;;;;;;;55.67;29.27;;;10.90;99.90;;;;;;4980861;28;20511;-50
2022/11/14 10:46:50;;;;;;;50.03;29.00;;;10.70;99.90;;;;;;4977234;28;20465;-54
2022/11/14 10:49:20;;;;;;;52.90;29.10;;;9.80;99.90;;;;;;4986317;28;20539;-53
2022/11/14 10:51:51;;;;;;;61.93;32.47;;;9.60;96.50;;;;;;4984238;28;20507;-51
2022/11/14 10:54:21;;;;;;;46.87;27.13;;;10.00;91.90;;;;;;4983754;28;20496;-51
2022/11/14 10:56:49;;;;;;;49.13;29.67;;;9.90;99.10;;;;;;4975696;28;20520;-50
2022/11/14 10:59:16;;;;;;;51.87;29.80;;;10.00;91.90;;;;;;4983924;28;20460;-52
2022/11/14 11:01:46;;;;;;;48.10;29.00;;;9.90;90.50;;;;;;4978234;28;21076;-51
2022/11/14 11:04:22;;;;;;;55.20;30.00;;;10.10;85.20;;;;;;4980267;28;20461;-54
2022/11/14 11:06:50;;;;;;;53.00;30.00;;;10.50;92.00;;;;;;4984688;28;20966;-51
2022/11/14 11:12:05;;;;;;;46.60;28.30;;;10.20;99.90;;;;;;4988902;28;20471;-51
2022/11/14 11:14:31;;;;;;;53.27;28.27;;;10.30;99.90;;;;;;4981385;28;20460;-50
2022/11/14 11:17:17;;;;;;;52.97;26.73;;;10.70;99.90;;;;;;4982977;28;20464;-50
2022/11/14 11:19:46;;;;;;;46.20;26.80;;;10.70;99.90;;;;;;4986576;28;20587;-49
2022/11/14 11:22:26;;;;;;;51.87;28.37;;;10.90;99.90;;;;;;4986777;28;20494;-51
2022/11/14 11:24:53;;;;;;;55.63;29.13;;;10.90;99.90;;;;;;4981205;28;20452;-51
2022/11/14 11:27:23;;;;;;;48.70;28.53;;;10.70;99.90;;;;;;4985698;28;20469;-50
2022/11/14 11:30:08;;;;;;;50.20;28.03;;;10.40;99.90;;;;;;4987110;28;20511;-50
2022/11/14 11:32:36;;;;;;;50.17;29.57;;;10.40;89.30;;;;;;4985858;28;20962;-50
2022/11/14 11:35:11;;;;;;;46.30;28.83;;;10.60;88.80;;;;;;4984084;28;20524;-50
2022/11/14 11:37:43;;;;;;;50.53;28.03;;;10.30;98.80;;;;;;4985706;28;20460;-52
2022/11/14 11:40:17;;;;;;;49.27;29.20;;;10.40;99.90;;;;;;4988274;28;20494;-51
2022/11/14 11:42:49;;;;;;;47.10;27.20;;;10.50;99.90;;;;;;4983190;28;20902;-50
2022/11/14 11:45:17;;;;;;;49.57;29.13;;;10.60;99.30;;;;;;4987673;28;20875;-50
2022/11/14 11:47:51;;;;;;;54.57;31.23;;;10.50;99.90;;;;;;4977846;28;20516;-51
2022/11/14 11:50:21;;;;;;;46.97;30.17;;;10.40;99.40;;;;;;4984892;28;20563;-51
2022/11/14 11:52:54;;;;;;;57.13;26.60;;;10.40;99.90;;;;;;4980971;28;20543;-52
2022/11/14 11:55:24;;;;;;;59.33;29.40;;;11.50;99.90;;;;;;4983105;28;20472;-52
2022/11/14 11:57:59;;;;;;;45.97;28.80;;;11.50;99.90;;;;;;4980158;28;20998;-50
2022/11/14 12:00:25;;;;;;;45.40;30.17;;;11.60;99.90;;;;;;4984249;28;20507;-51
2022/11/14 12:02:54;;;;;;;41.23;26.87;;;11.60;99.90;;;;;;4987944;28;20480;-51
2022/11/14 12:05:28;;;;;;;44.63;26.33;;;12.60;99.90;;;;;;4983239;28;20465;-51
2022/11/14 12:08:00;;;;;;;42.40;27.03;;;11.90;99.90;;;;;;4988834;28;20475;-50
2022/11/14 12:10:30;;;;;;;43.67;27.07;;;13.70;99.90;;;;;;4987298;28;20485;-51
2022/11/14 12:13:31;;;;;;;49.27;28.73;;;14.60;58.40;;;;;;4985421;28;20456;-51
2022/11/14 12:16:10;;;;;;;45.37;25.90;;;14.70;75.50;;;;;;4975811;28;20590;-52
2022/11/14 12:19:15;;;;;;;44.17;26.60;;;13.40;54.80;;;;;;4980997;28;20550;-54
2022/11/14 12:22:05;;;;;;;46.97;26.77;;;13.50;52.50;;;;;;4987098;28;20484;-54
2022/11/14 12:24:53;;;;;;;45.30;27.20;;;13.00;48.30;;;;;;4986597;28;20480;-51
2022/11/14 12:27:34;;;;;;;44.67;27.30;;;12.00;99.90;;;;;;4984116;28;20469;-51
2022/11/14 12:30:13;;;;;;;45.53;26.50;;;11.80;99.90;;;;;;4983108;28;20543;-50
2022/11/14 12:32:46;;;;;;;40.30;26.77;;;11.60;99.90;;;;;;4979423;28;20576;-51
2022/11/14 12:35:20;;;;;;;46.90;28.40;;;11.20;99.90;;;;;;4988439;28;20468;-51
2022/11/14 12:37:49;;;;;;;45.23;27.50;;;11.00;99.90;;;;;;4988480;28;21440;-51
2022/11/14 12:40:23;;;;;;;49.23;28.57;;;10.70;99.90;;;;;;4983811;28;20468;-51
2022/11/14 12:42:50;;;;;;;48.50;30.37;;;10.60;99.90;;;;;;4984098;28;20987;-50
2022/11/14 12:45:53;;;;;;;46.10;27.47;;;11.00;99.90;;;;;;4988886;28;20523;-50
2022/11/14 12:48:28;;;;;;;40.30;24.07;;;10.80;99.90;;;;;;4981812;28;20494;-51